createdAt,value
2023-01-17T00:01:34.392Z,97726.94
2023-01-17T00:04:20.119Z,97734.09
2023-01-17T00:07:05.717Z,97729.47
2023-01-17T00:09:50.772Z,97761.03
2023-01-17T00:12:19.277Z,97739.31
2023-01-17T00:14:48.542Z,97754.66
2023-01-17T00:17:16.445Z,97696.44
2023-01-17T00:20:02.398Z,97739.38
2023-01-17T00:22:49.560Z,97759.72
2023-01-17T00:25:37.148Z,97748.25
2023-01-17T00:28:05.307Z,97753.50
2023-01-17T00:30:33.899Z,97758.28
2023-01-17T00:33:01.132Z,97760.81
2023-01-17T00:35:29.729Z,97768.91
2023-01-17T00:38:05.065Z,97716.38
2023-01-17T00:40:32.031Z,97763.34
2023-01-17T00:43:19.678Z,97750.28
2023-01-17T00:46:06.428Z,97766.66
2023-01-17T00:48:52.844Z,97769.19
2023-01-17T00:51:38.653Z,97759.53
2023-01-17T00:54:24.478Z,97774.88
2023-01-17T00:57:10.306Z,97781.13
2023-01-17T00:59:56.318Z,97740.53
2023-01-17T01:02:44.124Z,97789.69
2023-01-17T01:05:30.308Z,97775.22
2023-01-17T01:08:15.672Z,97777.97
2023-01-17T01:11:01.790Z,97793.66
2023-01-17T01:13:49.601Z,97793.81
2023-01-17T01:16:35.775Z,97788.25
2023-01-17T01:19:24.069Z,97762.44
2023-01-17T01:22:09.775Z,97763.81
2023-01-17T01:24:54.823Z,97811.47
2023-01-17T01:27:40.402Z,97810.34
2023-01-17T01:30:27.120Z,97817.84
2023-01-17T01:33:12.674Z,97783.59
2023-01-17T01:35:43.124Z,97822.16
2023-01-17T01:38:11.065Z,97796.00
2023-01-17T01:40:47.620Z,97828.41
2023-01-17T01:43:19.392Z,97788.94
2023-01-17T01:45:51.873Z,97822.63
2023-01-17T01:48:32.816Z,97831.06
2023-01-17T01:51:03.773Z,97791.13
2023-01-17T01:53:34.237Z,97832.31
2023-01-17T01:56:03.061Z,97849.94
2023-01-17T01:58:37.509Z,97843.69
2023-01-17T02:01:06.568Z,97819.56
2023-01-17T02:03:35.699Z,97803.50
2023-01-17T02:06:16.391Z,97834.69
2023-01-17T02:08:44.793Z,97869.16
2023-01-17T02:11:13.331Z,97848.78
2023-01-17T02:13:42.472Z,97810.97
2023-01-17T02:16:21.968Z,97835.31
2023-01-17T02:18:58.095Z,97829.41
2023-01-17T02:21:29.677Z,97857.88
2023-01-17T02:24:40.236Z,97862.53
2023-01-17T02:27:17.231Z,97863.66
2023-01-17T02:30:14.874Z,97871.06
2023-01-17T02:33:15.166Z,97831.19
2023-01-17T02:35:54.716Z,97875.28
2023-01-17T02:38:33.281Z,97873.88
2023-01-17T02:41:06.131Z,97877.19
2023-01-17T02:43:34.771Z,97824.47
2023-01-17T02:46:02.810Z,97853.13
2023-01-17T02:48:33.316Z,97851.78
2023-01-17T02:51:22.150Z,97872.06
2023-01-17T02:54:05.366Z,97871.50
2023-01-17T02:56:49.253Z,97854.53
2023-01-17T02:59:37.088Z,97861.69
2023-01-17T03:02:16.898Z,97859.50
2023-01-17T03:04:51.612Z,97862.13
2023-01-17T03:07:25.170Z,97827.72
2023-01-17T03:09:59.754Z,97864.38
2023-01-17T03:12:29.958Z,97832.38
2023-01-17T03:14:58.062Z,97836.94
2023-01-17T03:17:30.948Z,97859.25
2023-01-17T03:19:59.224Z,97860.66
2023-01-17T03:22:28.529Z,97854.94
2023-01-17T03:24:56.911Z,97817.59
2023-01-17T03:27:24.830Z,97852.09
2023-01-17T03:29:52.713Z,97847.88
2023-01-17T03:32:21.067Z,97855.75
2023-01-17T03:34:49.020Z,97857.56
2023-01-17T03:37:16.824Z,97819.09
2023-01-17T03:39:46.657Z,97851.16
2023-01-17T03:42:14.551Z,97830.34
2023-01-17T03:44:42.420Z,97816.78
2023-01-17T03:47:12.220Z,97838.09
2023-01-17T03:49:40.501Z,97801.66
2023-01-17T03:52:09.010Z,97831.50
2023-01-17T03:54:37.140Z,97831.13
2023-01-17T03:57:06.636Z,97819.16
2023-01-17T03:59:34.469Z,97825.13
2023-01-17T04:02:03.208Z,97785.84
2023-01-17T04:04:31.099Z,97841.50
2023-01-17T04:06:59.043Z,97811.66
2023-01-17T04:09:27.381Z,97813.03
2023-01-17T04:11:56.630Z,97832.38
2023-01-17T04:14:25.909Z,97819.75
2023-01-17T04:16:54.475Z,97816.66
2023-01-17T04:19:22.466Z,97825.06
2023-01-17T04:21:50.227Z,97846.59
2023-01-17T04:24:18.411Z,97821.66
2023-01-17T04:26:46.313Z,97840.56
2023-01-17T04:29:14.123Z,97819.63
2023-01-17T04:31:44.093Z,97802.31
2023-01-17T04:34:11.928Z,97826.44
2023-01-17T04:36:39.885Z,97832.03
2023-01-17T04:39:08.724Z,97818.84
2023-01-17T04:41:36.843Z,97822.91
2023-01-17T04:44:05.200Z,97821.22
2023-01-17T04:46:33.597Z,97844.34
2023-01-17T04:49:02.877Z,97842.53
2023-01-17T04:51:30.764Z,97823.03
2023-01-17T04:53:59.249Z,97834.56
2023-01-17T04:56:27.074Z,97799.69
2023-01-17T04:58:54.963Z,97843.53
2023-01-17T05:01:23.200Z,97773.59
2023-01-17T05:03:51.134Z,97809.72
2023-01-17T05:06:20.355Z,97826.00
2023-01-17T05:08:48.722Z,97814.41
2023-01-17T05:11:16.626Z,97816.34
2023-01-17T05:13:44.624Z,97771.94
2023-01-17T05:16:13.252Z,97796.06
2023-01-17T05:18:41.058Z,97822.72
2023-01-17T05:21:08.839Z,97831.28
2023-01-17T05:23:38.354Z,97805.78
2023-01-17T05:26:06.406Z,97836.25
2023-01-17T05:28:34.247Z,97827.41
2023-01-17T05:31:02.572Z,97831.63
2023-01-17T05:33:30.442Z,97801.09
2023-01-17T05:35:58.414Z,97835.72
2023-01-17T05:38:26.838Z,97812.97
2023-01-17T05:40:56.194Z,97789.75
2023-01-17T05:43:24.027Z,97803.91
2023-01-17T05:45:52.496Z,97797.41
2023-01-17T05:48:20.622Z,97774.66
2023-01-17T05:50:48.505Z,97804.34
2023-01-17T05:53:18.331Z,97814.63
2023-01-17T05:55:47.739Z,97762.72
2023-01-17T05:58:20.146Z,97805.31
2023-01-17T06:00:48.517Z,97799.81
2023-01-17T06:03:16.833Z,97814.50
2023-01-17T06:05:45.456Z,97804.84
2023-01-17T06:08:13.272Z,97778.78
2023-01-17T06:10:41.219Z,97787.44
2023-01-17T06:13:11.341Z,97785.75
2023-01-17T06:15:41.092Z,97797.13
2023-01-17T06:18:11.247Z,97794.59
2023-01-17T06:20:39.555Z,97770.03
2023-01-17T06:23:11.354Z,97786.19
2023-01-17T06:25:40.121Z,97812.47
2023-01-17T06:28:08.662Z,97811.53
2023-01-17T06:30:37.676Z,97789.03
2023-01-17T06:33:07.175Z,97786.63
2023-01-17T06:35:35.259Z,97752.59
2023-01-17T06:38:03.576Z,97773.53
2023-01-17T06:40:31.795Z,97796.41
2023-01-17T06:43:04.238Z,97812.13
2023-01-17T06:45:33.949Z,97800.28
2023-01-17T06:48:03.934Z,97805.03
2023-01-17T06:50:34.189Z,97801.44
2023-01-17T06:53:04.243Z,97799.81
2023-01-17T06:55:35.044Z,97793.34
2023-01-17T06:58:03.646Z,97789.34
2023-01-17T07:00:35.381Z,97800.50
2023-01-17T07:03:03.555Z,97780.94
2023-01-17T07:05:31.353Z,97809.84
2023-01-17T07:08:00.630Z,97797.06
2023-01-17T07:10:28.549Z,97757.25
2023-01-17T07:13:00.907Z,97804.72
2023-01-17T07:15:28.965Z,97799.13
2023-01-17T07:17:56.755Z,97803.47
2023-01-17T07:20:24.721Z,97780.59
2023-01-17T07:22:52.657Z,97789.34
2023-01-17T07:25:22.076Z,97775.00
2023-01-17T07:27:50.404Z,97812.44
2023-01-17T07:30:19.083Z,97810.63
2023-01-17T07:32:52.627Z,97805.50
2023-01-17T07:35:20.868Z,97812.44
2023-01-17T07:37:49.330Z,97810.28
2023-01-17T07:40:19.017Z,97768.84
2023-01-17T07:42:48.488Z,97813.91
2023-01-17T07:45:17.619Z,97812.31
2023-01-17T07:47:45.788Z,97815.97
2023-01-17T07:50:14.174Z,97812.75
2023-01-17T07:52:42.354Z,97816.41
2023-01-17T07:55:11.516Z,97820.03
2023-01-17T07:57:39.498Z,97787.59
2023-01-17T08:00:11.058Z,97821.63
2023-01-17T08:02:39.462Z,97821.88
2023-01-17T08:05:07.873Z,97815.84
2023-01-17T08:07:35.850Z,97816.38
2023-01-17T08:10:04.281Z,97826.53
2023-01-17T08:12:32.114Z,97810.66
2023-01-17T08:14:59.998Z,97818.63
2023-01-17T08:17:29.900Z,97811.38
2023-01-17T08:19:58.211Z,97830.50
2023-01-17T08:22:25.952Z,97805.44
2023-01-17T08:24:54.202Z,97831.06
2023-01-17T08:27:22.056Z,97845.75
2023-01-17T08:29:50.764Z,97840.53
2023-01-17T08:32:20.534Z,97844.97
2023-01-17T08:34:49.871Z,97821.75
2023-01-17T08:37:17.803Z,97830.06
2023-01-17T08:39:46.086Z,97835.84
2023-01-17T08:42:13.885Z,97834.16
2023-01-17T08:44:41.880Z,97838.97
2023-01-17T08:47:11.542Z,97820.53
2023-01-17T08:49:39.592Z,97804.78
2023-01-17T08:52:09.216Z,97819.59
2023-01-17T08:54:37.436Z,97788.53
2023-01-17T08:57:05.521Z,97838.72
2023-01-17T08:59:33.385Z,97777.97
2023-01-17T09:02:07.329Z,97832.84
2023-01-17T09:04:35.188Z,97841.16
2023-01-17T09:07:03.059Z,97847.78
2023-01-17T09:09:32.494Z,97853.13
2023-01-17T09:12:00.178Z,97829.91
2023-01-17T09:14:28.188Z,97849.59
2023-01-17T09:16:56.564Z,97808.06
2023-01-17T09:19:24.276Z,97863.34
2023-01-17T09:21:52.263Z,97863.72
2023-01-17T09:24:20.606Z,97869.28
2023-01-17T09:26:49.753Z,97849.59
2023-01-17T09:29:18.864Z,97876.00
2023-01-17T09:31:47.862Z,97885.78
2023-01-17T09:34:15.672Z,97876.69
2023-01-17T09:36:43.782Z,97869.97
2023-01-17T09:39:15.236Z,97881.03
2023-01-17T09:41:53.266Z,97878.88
2023-01-17T09:44:27.027Z,97878.38
2023-01-17T09:46:58.108Z,97877.47
2023-01-17T09:49:35.834Z,97887.09
2023-01-17T09:52:04.577Z,97883.19
2023-01-17T09:54:36.607Z,97850.63
2023-01-17T09:57:14.595Z,97883.66
2023-01-17T10:00:02.609Z,97841.16
2023-01-17T10:02:55.511Z,97896.47
2023-01-17T10:05:41.886Z,97880.00
2023-01-17T10:08:22.952Z,97880.44
2023-01-17T10:11:01.042Z,97899.34
2023-01-17T10:13:42.520Z,97894.75
2023-01-17T10:16:30.488Z,97888.03
2023-01-17T10:19:33.495Z,97898.59
2023-01-17T10:22:32.334Z,97882.19
2023-01-17T10:25:16.195Z,97896.44
2023-01-17T10:27:55.746Z,97877.63
2023-01-17T10:30:31.285Z,97889.75
2023-01-17T10:33:06.084Z,97895.34
2023-01-17T10:35:39.431Z,97865.28
2023-01-17T10:38:13.256Z,97885.50
2023-01-17T10:40:45.871Z,97861.09
2023-01-17T10:43:20.756Z,97885.88
2023-01-17T10:45:54.282Z,97883.91
2023-01-17T10:48:35.551Z,97889.25
2023-01-17T10:51:15.002Z,97858.03
2023-01-17T10:54:00.555Z,97876.75
2023-01-17T10:56:31.013Z,97868.88
2023-01-17T10:59:18.700Z,97866.19
2023-01-17T11:01:50.376Z,97869.38
2023-01-17T11:04:21.995Z,97852.03
2023-01-17T11:07:12.087Z,97854.91
2023-01-17T11:09:41.232Z,97830.63
2023-01-17T11:12:20.477Z,97858.78
2023-01-17T11:15:01.684Z,97860.94
2023-01-17T11:17:32.348Z,97858.06
2023-01-17T11:20:17.608Z,97847.81
2023-01-17T11:22:49.342Z,97848.69
2023-01-17T11:25:23.845Z,97845.81
2023-01-17T11:28:02.842Z,97847.19
2023-01-17T11:30:30.891Z,97848.22
2023-01-17T11:33:03.974Z,97838.44
2023-01-17T11:35:34.351Z,97850.91
2023-01-17T11:38:07.151Z,97849.56
2023-01-17T11:40:39.298Z,97837.31
2023-01-17T11:43:19.949Z,97858.16
2023-01-17T11:46:00.675Z,97848.94
2023-01-17T11:48:35.950Z,97853.16
2023-01-17T11:51:04.907Z,97852.44
2023-01-17T11:53:36.212Z,97845.81
2023-01-17T11:56:07.329Z,97835.63
2023-01-17T11:58:37.114Z,97837.72
2023-01-17T12:01:27.862Z,97800.41
2023-01-17T12:04:18.167Z,97830.22
2023-01-17T12:06:58.241Z,97785.72
2023-01-17T12:09:32.280Z,97827.53
2023-01-17T12:12:28.740Z,97823.69
2023-01-17T12:15:08.995Z,97816.13
2023-01-17T12:17:54.495Z,97807.09
2023-01-17T12:20:32.901Z,97818.75
2023-01-17T12:23:14.419Z,97819.09
2023-01-17T12:25:57.600Z,97812.09
2023-01-17T12:29:00.923Z,97816.72
2023-01-17T12:31:35.203Z,97809.22
2023-01-17T12:34:15.128Z,97812.25
2023-01-17T12:36:49.969Z,97742.44
2023-01-17T12:39:23.020Z,97798.88
2023-01-17T12:42:04.908Z,97787.66
2023-01-17T12:44:46.627Z,97780.25
2023-01-17T12:47:16.917Z,97784.84
2023-01-17T12:49:59.425Z,97757.03
2023-01-17T12:52:39.735Z,97739.13
2023-01-17T12:55:17.713Z,97765.44
2023-01-17T12:57:53.031Z,97776.06
2023-01-17T13:00:23.625Z,97775.88
2023-01-17T13:02:58.130Z,97774.31
2023-01-17T13:05:31.264Z,97767.41
2023-01-17T13:08:06.393Z,97765.44
2023-01-17T13:10:37.842Z,97749.78
2023-01-17T13:13:20.142Z,97748.25
2023-01-17T13:15:50.893Z,97762.91
2023-01-17T13:18:23.125Z,97767.44
2023-01-17T13:21:06.674Z,97745.91
2023-01-17T13:23:59.034Z,97761.19
2023-01-17T13:26:39.762Z,97756.41
2023-01-17T13:29:15.855Z,97772.16
2023-01-17T13:31:49.407Z,97778.22
2023-01-17T13:34:50.931Z,97771.28
2023-01-17T13:37:42.435Z,97781.56
2023-01-17T13:40:27.409Z,97750.88
2023-01-17T13:42:58.873Z,97766.38
2023-01-17T13:45:29.077Z,97766.44
2023-01-17T13:48:25.662Z,97768.91
2023-01-17T13:50:55.519Z,97771.41
2023-01-17T13:53:59.668Z,97770.84
2023-01-17T13:56:40.379Z,97768.53
2023-01-17T13:59:30.892Z,97781.81
2023-01-17T14:01:58.648Z,97787.13
2023-01-17T14:04:47.501Z,97783.00
2023-01-17T14:07:26.624Z,97783.66
2023-01-17T14:09:55.286Z,97766.72
2023-01-17T14:12:32.824Z,97784.03
2023-01-17T14:15:05.731Z,97737.38
2023-01-17T14:17:45.305Z,97802.25
2023-01-17T14:20:50.112Z,97807.19
2023-01-17T14:23:34.002Z,97799.88
2023-01-17T14:26:19.833Z,97812.75
2023-01-17T14:28:49.243Z,97803.38
2023-01-17T14:31:19.236Z,97802.31
2023-01-17T14:33:47.615Z,97820.38
2023-01-17T14:36:24.868Z,97827.06
2023-01-17T14:38:53.243Z,97812.75
2023-01-17T14:41:23.372Z,97819.75
2023-01-17T14:43:53.830Z,97824.03
2023-01-17T14:46:26.418Z,97829.84
2023-01-17T14:49:01.836Z,97823.25
2023-01-17T14:51:30.134Z,97826.97
2023-01-17T14:53:59.592Z,97832.00
2023-01-17T14:56:30.198Z,97816.41
2023-01-17T14:59:17.000Z,97841.22
2023-01-17T15:01:58.173Z,97830.25
2023-01-17T15:04:39.313Z,97828.81
2023-01-17T15:07:08.915Z,97814.25
2023-01-17T15:09:38.946Z,97821.66
2023-01-17T15:12:10.848Z,97829.13
2023-01-17T15:14:43.976Z,97764.47
2023-01-17T15:17:17.965Z,97821.66
2023-01-17T15:19:49.008Z,97814.66
2023-01-17T15:22:18.931Z,97838.19
2023-01-17T15:24:48.119Z,97858.78
2023-01-17T15:27:17.377Z,97853.78
2023-01-17T15:29:48.102Z,97854.84
2023-01-17T15:32:21.640Z,97861.34
2023-01-17T15:34:51.383Z,97843.03
2023-01-17T15:37:26.935Z,97850.91
2023-01-17T15:40:04.063Z,97865.00
2023-01-17T15:42:33.345Z,97848.75
2023-01-17T15:45:05.521Z,97863.09
2023-01-17T15:47:35.484Z,97857.50
2023-01-17T15:50:25.673Z,97857.28
2023-01-17T15:52:55.832Z,97858.09
2023-01-17T15:55:27.558Z,97856.47
2023-01-17T15:57:55.336Z,97857.50
2023-01-17T16:03:25.109Z,97865.38
2023-01-17T16:05:56.946Z,97873.75
2023-01-17T16:08:40.324Z,97864.41
2023-01-17T16:11:11.941Z,97836.25
2023-01-17T16:13:42.297Z,97864.91
2023-01-17T16:16:17.923Z,97877.44
2023-01-17T16:18:47.538Z,97859.16
2023-01-17T16:21:25.023Z,97866.78
2023-01-17T16:23:54.117Z,97840.63
2023-01-17T16:26:22.067Z,97852.97
2023-01-17T16:28:50.749Z,97876.03
2023-01-17T16:31:20.574Z,97878.47
2023-01-17T16:33:50.655Z,97884.22
2023-01-17T16:36:20.853Z,97891.50
2023-01-17T16:38:50.873Z,97892.28
2023-01-17T16:41:19.430Z,97894.59
2023-01-17T16:43:48.456Z,97884.13
2023-01-17T16:46:16.904Z,97890.06
2023-01-17T16:48:46.277Z,97893.25
2023-01-17T16:51:14.103Z,97857.22
2023-01-17T16:53:42.055Z,97911.03
2023-01-17T16:56:13.810Z,97916.75
2023-01-17T16:58:42.380Z,97913.78
2023-01-17T17:01:11.412Z,97893.31
2023-01-17T17:03:40.155Z,97908.47
2023-01-17T17:06:10.041Z,97905.75
2023-01-17T17:08:39.801Z,97906.63
2023-01-17T17:11:13.890Z,97908.25
2023-01-17T17:13:42.881Z,97931.34
2023-01-17T17:16:16.074Z,97923.88
2023-01-17T17:18:45.401Z,97932.50
2023-01-17T17:21:14.784Z,97946.41
2023-01-17T17:23:42.742Z,97929.84
2023-01-17T17:26:11.466Z,97948.31
2023-01-17T17:28:39.429Z,97921.66
2023-01-17T17:31:10.486Z,97915.38
2023-01-17T17:33:39.335Z,97946.47
2023-01-17T17:36:10.299Z,97910.25
2023-01-17T17:38:51.046Z,97934.97
2023-01-17T17:41:20.312Z,97955.81
2023-01-17T17:43:48.460Z,97952.84
2023-01-17T17:46:16.709Z,97961.94
2023-01-17T17:48:44.831Z,97964.00
2023-01-17T17:51:24.415Z,97960.00
2023-01-17T17:53:54.755Z,97968.88
2023-01-17T17:56:23.490Z,97931.38
2023-01-17T17:58:52.361Z,97954.16
2023-01-17T18:01:22.993Z,97952.78
2023-01-17T18:03:51.385Z,97964.06
2023-01-17T18:06:20.049Z,97978.06
2023-01-17T18:08:48.301Z,97976.91
2023-01-17T18:11:20.031Z,98001.75
2023-01-17T18:13:50.500Z,97993.63
2023-01-17T18:16:21.276Z,97985.53
2023-01-17T18:18:51.680Z,97973.78
2023-01-17T18:21:24.041Z,97977.19
2023-01-17T18:23:54.508Z,97994.84
2023-01-17T18:26:26.185Z,97999.28
2023-01-17T18:28:55.365Z,98026.50
2023-01-17T18:31:25.196Z,98025.16
2023-01-17T18:33:54.281Z,98026.94
2023-01-17T18:36:23.350Z,98017.03
2023-01-17T18:38:51.825Z,98009.84
2023-01-17T18:41:22.538Z,98022.69
2023-01-17T18:43:52.754Z,97964.50
2023-01-17T18:46:21.969Z,98025.16
2023-01-17T18:48:49.959Z,98052.81
2023-01-17T18:51:20.629Z,98014.53
2023-01-17T18:53:49.946Z,98022.78
2023-01-17T18:56:20.607Z,98053.56
2023-01-17T18:58:50.463Z,98059.41
2023-01-17T19:01:22.334Z,98045.44
2023-01-17T19:03:53.029Z,98067.03
2023-01-17T19:06:24.225Z,98060.19
2023-01-17T19:08:53.186Z,98037.31
2023-01-17T19:11:22.591Z,98055.13
2023-01-17T19:13:51.227Z,98069.94
2023-01-17T19:16:24.605Z,98058.31
2023-01-17T19:18:53.534Z,98022.66
2023-01-17T19:21:24.488Z,98056.78
2023-01-17T19:23:53.117Z,98062.25
2023-01-17T19:26:22.911Z,98036.75
2023-01-17T19:28:54.718Z,97992.38
2023-01-17T19:31:26.258Z,98070.53
2023-01-17T19:33:57.660Z,98034.78
2023-01-17T19:36:27.986Z,98031.78
2023-01-17T19:39:04.502Z,98074.81
2023-01-17T19:41:35.534Z,98056.00
2023-01-17T19:44:08.263Z,98035.66
2023-01-17T19:46:38.609Z,98083.38
2023-01-17T19:49:08.783Z,98011.31
2023-01-17T19:51:37.483Z,98058.22
2023-01-17T19:54:07.058Z,98046.50
2023-01-17T19:56:35.488Z,98015.38
2023-01-17T19:59:04.153Z,98049.53
2023-01-17T20:01:35.047Z,98049.75
2023-01-17T20:04:09.903Z,98027.00
2023-01-17T20:06:38.409Z,98082.94
2023-01-17T20:09:07.213Z,98094.56
2023-01-17T20:11:35.536Z,98072.03
2023-01-17T20:14:06.134Z,98026.69
2023-01-17T20:16:37.119Z,98102.81
2023-01-17T20:19:07.587Z,98052.47
2023-01-17T20:21:35.518Z,98105.28
2023-01-17T20:24:04.429Z,98082.13
2023-01-17T20:26:35.979Z,98081.31
2023-01-17T20:29:06.910Z,98078.75
2023-01-17T20:31:38.671Z,98105.13
2023-01-17T20:34:10.030Z,98056.75
2023-01-17T20:36:39.133Z,98101.38
2023-01-17T20:39:11.035Z,98081.16
2023-01-17T20:41:42.345Z,98044.44
2023-01-17T20:44:16.918Z,98078.03
2023-01-17T20:50:28.411Z,98071.53
2023-01-17T20:52:56.871Z,98034.75
2023-01-17T20:55:29.140Z,98046.81
2023-01-17T20:57:59.740Z,98119.22
2023-01-17T21:00:27.684Z,98035.19
2023-01-17T21:02:57.232Z,98061.34
2023-01-17T21:05:25.662Z,98114.97
2023-01-17T21:07:55.096Z,98061.19
2023-01-17T21:10:23.111Z,98093.03
2023-01-17T21:12:51.651Z,98107.25
2023-01-17T21:15:19.991Z,98138.72
2023-01-17T21:17:47.864Z,98082.09
2023-01-17T21:20:17.670Z,98083.28
2023-01-17T21:22:45.675Z,98048.94
2023-01-17T21:25:22.958Z,98090.16
2023-01-17T21:27:50.997Z,98108.94
2023-01-17T21:30:19.056Z,98144.41
2023-01-17T22:32:56.551Z,98123.34
2023-01-17T22:35:24.947Z,98139.34
2023-01-17T22:43:58.652Z,98171.97
2023-01-17T22:46:28.886Z,98186.81
2023-01-17T22:48:58.983Z,98173.00
2023-01-17T22:51:29.461Z,98156.59
2023-01-17T22:54:00.632Z,98171.00
2023-01-17T22:56:31.831Z,98166.19
2023-01-17T22:59:01.144Z,98172.22
2023-01-17T23:01:31.693Z,98171.81
2023-01-17T23:04:02.845Z,98173.84
2023-01-17T23:06:32.842Z,98151.41
2023-01-17T23:09:03.365Z,98145.00
2023-01-17T23:11:42.917Z,98186.63
2023-01-17T23:14:14.817Z,98173.44
2023-01-17T23:17:02.029Z,98176.47
2023-01-17T23:19:34.241Z,98190.66
2023-01-17T23:22:20.188Z,98170.28
2023-01-17T23:24:53.615Z,98138.66
2023-01-17T23:27:41.313Z,98189.28
2023-01-17T23:30:12.349Z,98193.28
2023-01-17T23:32:41.149Z,98165.84
2023-01-17T23:35:15.220Z,98187.28
2023-01-17T23:38:00.640Z,98176.69
2023-01-17T23:40:29.315Z,98178.72
2023-01-17T23:43:14.691Z,98175.09
2023-01-17T23:45:44.192Z,98188.72
2023-01-17T23:48:12.889Z,98171.88
2023-01-17T23:50:45.018Z,98170.06
2023-01-17T23:53:16.150Z,98178.72
2023-01-17T23:55:47.384Z,98157.47
2023-01-17T23:58:15.887Z,98170.88
